Time,TemperatureF,DewpointF,PressureIn,WindDirection,WindDirectionDegrees,WindSpeedMPH,WindSpeedGustMPH,Humidity,HourlyPrecipIn,Conditions,Clouds,dailyrainin,SoftwareType,DateUTC
2013-02-15 00:00:00,36.7,30.5,30.03,SSW,205,5.0,12.0,78,0.00,,---,0.01,VWS V14.01,2013-02-15 05:00:00,
2013-02-15 00:05:00,36.7,30.5,30.03,SW,219,1.0,8.0,78,0.00,,---,0.00,VWS V14.01,2013-02-15 05:05:00,
2013-02-15 00:10:00,36.6,30.4,30.03,WSW,255,4.0,9.0,78,0.00,,---,0.00,VWS V14.01,2013-02-15 05:10:00,
2013-02-15 00:15:00,36.6,30.4,30.03,SW,224,6.0,11.0,78,0.00,,---,0.00,VWS V14.01,2013-02-15 05:15:00,
2013-02-15 00:20:00,36.6,30.7,30.04,SSW,212,6.0,11.0,79,0.00,,---,0.00,VWS V14.01,2013-02-15 05:20:00,
2013-02-15 00:25:00,36.6,30.4,30.03,SSW,195,1.0,11.0,78,0.00,,---,0.00,VWS V14.01,2013-02-15 05:25:00,
2013-02-15 00:30:00,36.5,30.6,30.04,SSW,211,2.0,4.0,79,0.00,,---,0.00,VWS V14.01,2013-02-15 05:30:00,
2013-02-15 00:35:00,36.4,30.5,30.03,South,188,5.0,7.0,79,0.00,,---,0.00,VWS V14.01,2013-02-15 05:35:00,
2013-02-15 00:40:00,36.4,30.5,30.03,SSW,212,3.0,10.0,79,0.00,,---,0.00,VWS V14.01,2013-02-15 05:40:00,
2013-02-15 00:45:00,36.4,30.5,30.03,WSW,245,5.0,10.0,79,0.00,,---,0.00,VWS V14.01,2013-02-15 05:45:00,
2013-02-15 00:50:00,36.3,30.4,30.03,SW,219,2.0,10.0,79,0.00,,---,0.00,VWS V14.01,2013-02-15 05:50:00,
2013-02-15 00:55:00,36.3,30.7,30.03,SSW,195,6.0,10.0,80,0.00,,---,0.00,VWS V14.01,2013-02-15 05:55:00,
2013-02-15 01:00:00,36.2,30.3,30.03,SW,215,3.0,5.0,79,0.00,,---,0.00,VWS V14.01,2013-02-15 06:00:00,
2013-02-15 01:05:00,36.1,30.5,30.03,SSW,210,1.0,6.0,80,0.00,,---,0.00,VWS V14.01,2013-02-15 06:05:00,
2013-02-15 01:10:00,36.0,30.4,30.03,SSW,204,1.0,6.0,80,0.00,,---,0.00,VWS V14.01,2013-02-15 06:10:00,
2013-02-15 01:15:00,35.8,30.2,30.03,SSW,193,1.0,6.0,80,0.00,,---,0.00,VWS V14.01,2013-02-15 06:15:00,
2013-02-15 01:20:00,35.7,30.5,30.03,SW,221,3.0,6.0,81,0.00,,---,0.00,VWS V14.01,2013-02-15 06:20:00,
2013-02-15 01:25:00,35.8,30.5,30.03,SSW,203,2.0,6.0,81,0.00,,---,0.00,VWS V14.01,2013-02-15 06:25:00,
2013-02-15 01:30:00,36.0,30.8,30.03,WSW,250,4.0,5.0,81,0.00,,---,0.00,VWS V14.01,2013-02-15 06:30:00,
2013-02-15 01:35:00,36.2,30.6,30.04,South,191,2.0,8.0,80,0.00,,---,0.00,VWS V14.01,2013-02-15 06:35:00,
2013-02-15 01:40:00,36.2,30.9,30.04,SSW,205,6.0,9.0,81,0.00,,---,0.00,VWS V14.01,2013-02-15 06:40:00,
2013-02-15 01:45:00,36.5,30.9,30.04,West,262,2.0,12.0,80,0.00,,---,0.00,VWS V14.01,2013-02-15 06:45:00,
2013-02-15 01:50:00,36.7,31.1,30.04,SSW,194,4.0,12.0,80,0.00,,---,0.00,VWS V14.01,2013-02-15 06:50:00,
2013-02-15 01:55:00,36.9,31.0,30.04,WSW,240,4.0,12.0,79,0.00,,---,0.00,VWS V14.01,2013-02-15 06:55:00,
2013-02-15 02:00:00,36.8,30.9,30.04,NW,307,2.0,8.0,79,0.00,,---,0.00,VWS V14.01,2013-02-15 07:00:00,
2013-02-15 02:05:00,36.7,31.1,30.04,SSW,211,2.0,10.0,80,0.00,,---,0.00,VWS V14.01,2013-02-15 07:05:00,
2013-02-15 02:11:00,36.7,31.1,30.04,SSW,211,1.0,11.0,80,0.00,,---,0.00,VWS V14.01,2013-02-15 07:11:00,
2013-02-15 02:16:00,36.7,31.1,30.04,SW,217,6.0,11.0,80,0.00,,---,0.00,VWS V14.01,2013-02-15 07:16:00,
2013-02-15 02:21:00,36.7,31.1,30.04,West,265,1.0,11.0,80,0.00,,---,0.00,VWS V14.01,2013-02-15 07:21:00,
2013-02-15 02:26:00,36.7,31.1,30.04,SW,233,5.0,11.0,80,0.00,,---,0.00,VWS V14.01,2013-02-15 07:26:00,
2013-02-15 02:31:00,36.7,31.1,30.04,SSW,207,2.0,3.0,80,0.00,,---,0.00,VWS V14.01,2013-02-15 07:31:00,
2013-02-15 02:36:00,36.6,31.0,30.05,WSW,256,5.0,7.0,80,0.00,,---,0.00,VWS V14.01,2013-02-15 07:36:00,
2013-02-15 02:41:00,36.6,31.0,30.05,SW,224,7.0,8.0,80,0.00,,---,0.00,VWS V14.01,2013-02-15 07:41:00,
2013-02-15 02:46:00,36.5,31.2,30.05,SSW,209,2.0,8.0,81,0.00,,---,0.00,VWS V14.01,2013-02-15 07:46:00,
2013-02-15 02:51:00,36.4,31.1,30.05,SSW,207,2.0,8.0,81,0.00,,---,0.00,VWS V14.01,2013-02-15 07:51:00,
2013-02-15 02:56:00,36.3,31.0,30.04,SW,217,5.0,9.0,81,0.00,,---,0.00,VWS V14.01,2013-02-15 07:56:00,
2013-02-15 03:01:00,36.3,31.0,30.05,SSW,212,2.0,3.0,81,0.00,,---,0.00,VWS V14.01,2013-02-15 08:01:00,
2013-02-15 03:06:00,36.1,30.8,30.05,SW,218,3.0,6.0,81,0.00,,---,0.00,VWS V14.01,2013-02-15 08:06:00,
2013-02-15 03:11:00,36.0,31.0,30.05,SSW,205,1.0,8.0,82,0.00,,---,0.00,VWS V14.01,2013-02-15 08:11:00,
2013-02-15 03:16:00,35.8,30.9,30.05,SW,214,2.0,8.0,82,0.00,,---,0.00,VWS V14.01,2013-02-15 08:16:00,
2013-02-15 03:21:00,35.7,30.8,30.05,SW,225,1.0,8.0,82,0.00,,---,0.00,VWS V14.01,2013-02-15 08:21:00,
2013-02-15 03:26:00,35.5,30.6,30.05,SSW,204,2.0,8.0,82,0.00,,---,0.00,VWS V14.01,2013-02-15 08:26:00,
2013-02-15 03:31:00,35.2,30.6,30.04,SSW,196,0.0,1.0,83,0.00,,---,0.00,VWS V14.01,2013-02-15 08:31:00,
2013-02-15 03:36:00,34.9,30.6,30.04,South,181,2.0,3.0,84,0.00,,---,0.00,VWS V14.01,2013-02-15 08:36:00,
2013-02-15 03:41:00,34.7,30.4,30.04,SSW,200,1.0,3.0,84,0.00,,---,0.00,VWS V14.01,2013-02-15 08:41:00,
2013-02-15 03:46:00,34.7,30.4,30.04,WSW,242,0.0,3.0,84,0.00,,---,0.00,VWS V14.01,2013-02-15 08:46:00,
2013-02-15 03:51:00,34.6,30.3,30.04,SW,222,2.0,4.0,84,0.00,,---,0.00,VWS V14.01,2013-02-15 08:51:00,
2013-02-15 03:56:00,34.6,30.3,30.04,West,276,0.0,4.0,84,0.00,,---,0.00,VWS V14.01,2013-02-15 08:56:00,
2013-02-15 04:01:00,34.4,30.4,30.04,SW,222,3.0,3.0,85,0.00,,---,0.00,VWS V14.01,2013-02-15 09:01:00,
2013-02-15 04:06:00,34.4,30.4,30.03,SW,222,1.0,3.0,85,0.00,,---,0.00,VWS V14.01,2013-02-15 09:06:00,
2013-02-15 04:11:00,34.7,30.7,30.03,SSW,205,1.0,3.0,85,0.00,,---,0.00,VWS V14.01,2013-02-15 09:11:00,
2013-02-15 04:16:00,34.7,30.7,30.04,SW,214,0.0,3.0,85,0.00,,---,0.00,VWS V14.01,2013-02-15 09:16:00,
2013-02-15 04:21:00,34.5,30.5,30.03,SW,226,0.0,3.0,85,0.00,,---,0.00,VWS V14.01,2013-02-15 09:21:00,
2013-02-15 04:26:00,34.4,30.4,30.03,SW,228,0.0,3.0,85,0.00,,---,0.00,VWS V14.01,2013-02-15 09:26:00,
2013-02-15 04:31:00,34.1,30.1,30.04,SW,228,0.0,0.0,85,0.00,,---,0.00,VWS V14.01,2013-02-15 09:31:00,
2013-02-15 04:36:00,33.8,30.1,30.03,SW,228,0.0,1.0,86,0.00,,---,0.00,VWS V14.01,2013-02-15 09:36:00,
2013-02-15 04:41:00,33.5,29.8,30.03,South,191,0.0,1.0,86,0.00,,---,0.00,VWS V14.01,2013-02-15 09:41:00,
2013-02-15 04:47:00,33.1,29.7,30.04,SE,141,0.0,1.0,87,0.00,,---,0.00,VWS V14.01,2013-02-15 09:47:00,
2013-02-15 04:52:00,33.1,29.9,30.04,SE,141,0.0,1.0,88,0.00,,---,0.00,VWS V14.01,2013-02-15 09:52:00,
2013-02-15 04:57:00,33.1,29.9,30.04,SW,221,0.0,2.0,88,0.00,,---,0.00,VWS V14.01,2013-02-15 09:57:00,
2013-02-15 05:02:00,33.1,29.9,30.04,SW,221,0.0,0.0,88,0.00,,---,0.00,VWS V14.01,2013-02-15 10:02:00,
2013-02-15 05:07:00,32.9,29.7,30.03,South,191,0.0,1.0,88,0.00,,---,0.00,VWS V14.01,2013-02-15 10:07:00,
2013-02-15 05:12:00,32.8,29.6,30.04,SSW,210,0.0,2.0,88,0.00,,---,0.00,VWS V14.01,2013-02-15 10:12:00,
2013-02-15 05:17:00,32.5,29.4,30.03,SSW,210,0.0,2.0,88,0.00,,---,0.00,VWS V14.01,2013-02-15 10:17:00,
2013-02-15 05:22:00,32.1,29.0,30.03,SSW,210,0.0,2.0,88,0.00,,---,0.00,VWS V14.01,2013-02-15 10:22:00,
2013-02-15 05:27:00,31.6,28.5,30.03,SSW,210,0.0,2.0,88,0.00,,---,0.00,VWS V14.01,2013-02-15 10:27:00,
2013-02-15 05:32:00,31.9,29.6,30.03,SSW,211,0.0,1.0,91,0.00,,---,0.00,VWS V14.01,2013-02-15 10:32:00,
2013-02-15 05:37:00,32.2,29.9,30.04,SSW,211,0.0,1.0,91,0.00,,---,0.00,VWS V14.01,2013-02-15 10:37:00,
2013-02-15 05:42:00,32.3,29.7,30.04,SW,235,0.0,1.0,90,0.00,,---,0.00,VWS V14.01,2013-02-15 10:42:00,
2013-02-15 05:47:00,32.7,29.8,30.04,West,278,0.0,2.0,89,0.00,,---,0.00,VWS V14.01,2013-02-15 10:47:00,
2013-02-15 05:52:00,33.1,30.5,30.04,SW,236,0.0,2.0,90,0.00,,---,0.00,VWS V14.01,2013-02-15 10:52:00,
2013-02-15 05:57:00,33.3,30.1,30.04,SW,222,0.0,2.0,88,0.00,,---,0.00,VWS V14.01,2013-02-15 10:57:00,
2013-02-15 06:02:00,33.2,30.0,30.04,SW,222,0.0,0.0,88,0.00,,---,0.00,VWS V14.01,2013-02-15 11:02:00,
2013-02-15 06:07:00,33.4,30.2,30.04,SW,233,1.0,2.0,88,0.00,,---,0.00,VWS V14.01,2013-02-15 11:07:00,
2013-02-15 06:12:00,33.3,30.1,30.04,SW,221,0.0,2.0,88,0.00,,---,0.00,VWS V14.01,2013-02-15 11:12:00,
2013-02-15 06:17:00,32.7,29.3,30.04,SW,221,0.0,2.0,87,0.00,,---,0.00,VWS V14.01,2013-02-15 11:17:00,
2013-02-15 06:22:00,31.6,28.5,30.04,SE,131,0.0,2.0,88,0.00,,---,0.00,VWS V14.01,2013-02-15 11:22:00,
2013-02-15 06:27:00,31.0,28.4,30.04,South,176,0.0,2.0,90,0.00,,---,0.00,VWS V14.01,2013-02-15 11:27:00,
2013-02-15 06:32:00,30.6,28.3,30.04,SE,145,0.0,1.0,91,0.00,,---,0.00,VWS V14.01,2013-02-15 11:32:00,
2013-02-15 06:37:00,30.2,27.9,30.04,SE,124,1.0,1.0,91,0.00,,---,0.00,VWS V14.01,2013-02-15 11:37:00,
2013-02-15 06:42:00,29.7,27.7,30.04,SE,126,0.0,1.0,92,0.00,,---,0.00,VWS V14.01,2013-02-15 11:42:00,
2013-02-15 06:47:00,29.5,27.7,30.04,SW,222,0.0,1.0,93,0.00,,---,0.00,VWS V14.01,2013-02-15 11:47:00,
2013-02-15 06:52:00,29.4,27.6,30.04,SSW,198,0.0,1.0,93,0.00,,---,0.00,VWS V14.01,2013-02-15 11:52:00,
2013-02-15 06:57:00,29.2,27.4,30.05,South,174,0.0,1.0,93,0.00,,---,0.00,VWS V14.01,2013-02-15 11:57:00,
2013-02-15 07:02:00,29.1,27.6,30.05,South,172,0.0,0.0,94,0.00,,---,0.00,VWS V14.01,2013-02-15 12:02:00,
2013-02-15 07:07:00,29.2,27.7,30.04,South,174,0.0,0.0,94,0.00,,---,0.00,VWS V14.01,2013-02-15 12:07:00,
2013-02-15 07:12:00,29.3,27.8,30.04,South,174,0.0,0.0,94,0.00,,---,0.00,VWS V14.01,2013-02-15 12:12:00,
2013-02-15 07:17:00,29.4,28.1,30.04,South,172,0.0,0.0,95,0.00,,---,0.00,VWS V14.01,2013-02-15 12:17:00,
2013-02-15 07:22:00,29.7,28.5,30.05,SE,126,0.0,1.0,95,0.00,,---,0.00,VWS V14.01,2013-02-15 12:22:00,
2013-02-15 07:28:00,29.7,28.5,30.05,SE,126,0.0,1.0,95,0.00,,---,0.00,VWS V14.01,2013-02-15 12:28:00,
2013-02-15 07:33:00,29.6,28.1,30.05,SE,126,0.0,0.0,94,0.00,,---,0.00,VWS V14.01,2013-02-15 12:33:00,
2013-02-15 07:38:00,29.4,27.9,30.05,SE,126,0.0,0.0,94,0.00,,---,0.00,VWS V14.01,2013-02-15 12:38:00,
2013-02-15 07:43:00,29.3,27.8,30.05,SE,126,0.0,0.0,94,0.00,,---,0.00,VWS V14.01,2013-02-15 12:43:00,
2013-02-15 07:48:00,29.5,28.2,30.05,SE,125,0.0,0.0,95,0.00,,---,0.00,VWS V14.01,2013-02-15 12:48:00,
2013-02-15 07:53:00,30.1,28.8,30.05,SE,126,0.0,0.0,95,0.00,,---,0.00,VWS V14.01,2013-02-15 12:53:00,
2013-02-15 07:58:00,30.7,29.4,30.05,SE,126,0.0,1.0,95,0.00,,---,0.00,VWS V14.01,2013-02-15 12:58:00,
2013-02-15 08:03:00,31.6,30.3,30.06,SE,126,0.0,1.0,95,0.00,,---,0.00,VWS V14.01,2013-02-15 13:03:00,
2013-02-15 08:08:00,32.7,30.9,30.06,SE,127,0.0,1.0,93,0.00,,---,0.00,VWS V14.01,2013-02-15 13:08:00,
2013-02-15 08:13:00,33.5,31.2,30.06,SE,127,0.0,1.0,91,0.00,,---,0.00,VWS V14.01,2013-02-15 13:13:00,
2013-02-15 08:18:00,34.5,31.9,30.06,SE,124,1.0,2.0,90,0.00,,---,0.00,VWS V14.01,2013-02-15 13:18:00,
2013-02-15 08:23:00,34.7,31.2,30.06,ESE,110,1.0,2.0,87,0.00,,---,0.00,VWS V14.01,2013-02-15 13:23:00,
2013-02-15 08:28:00,34.8,31.3,30.06,ESE,110,0.0,2.0,87,0.00,,---,0.00,VWS V14.01,2013-02-15 13:28:00,
2013-02-15 08:33:00,35.5,32.0,30.06,ESE,116,0.0,1.0,87,0.00,,---,0.00,VWS V14.01,2013-02-15 13:33:00,
2013-02-15 08:38:00,36.2,32.1,30.06,ESE,117,0.0,2.0,85,0.00,,---,0.00,VWS V14.01,2013-02-15 13:38:00,
2013-02-15 08:43:00,37.0,32.6,30.06,East,99,1.0,2.0,84,0.00,,---,0.00,VWS V14.01,2013-02-15 13:43:00,
2013-02-15 08:48:00,37.3,32.6,30.06,ESE,113,2.0,4.0,83,0.00,,---,0.00,VWS V14.01,2013-02-15 13:48:00,
2013-02-15 08:53:00,37.1,32.1,30.06,SE,145,1.0,4.0,82,0.00,,---,0.00,VWS V14.01,2013-02-15 13:53:00,
2013-02-15 08:58:00,36.8,32.1,30.06,ESE,113,0.0,4.0,83,0.00,,---,0.00,VWS V14.01,2013-02-15 13:58:00,
2013-02-15 09:03:00,36.8,32.1,30.06,ESE,113,0.0,0.0,83,0.00,,---,0.00,VWS V14.01,2013-02-15 14:03:00,
2013-02-15 09:08:00,37.4,32.7,30.06,SSE,153,0.0,2.0,83,0.00,,---,0.00,VWS V14.01,2013-02-15 14:08:00,
2013-02-15 09:13:00,39.1,34.4,30.06,SSW,194,1.0,2.0,83,0.00,,---,0.00,VWS V14.01,2013-02-15 14:13:00,
2013-02-15 09:18:00,40.1,33.8,30.06,SW,229,4.0,6.0,78,0.00,,---,0.00,VWS V14.01,2013-02-15 14:18:00,
2013-02-15 09:23:00,40.4,33.8,30.06,WSW,248,6.0,7.0,77,0.00,,---,0.00,VWS V14.01,2013-02-15 14:23:00,
2013-02-15 09:28:00,40.7,33.7,30.06,South,189,6.0,10.0,76,0.00,,---,0.00,VWS V14.01,2013-02-15 14:28:00,
2013-02-15 09:33:00,41.0,34.0,30.05,SW,235,5.0,7.0,76,0.00,,---,0.00,VWS V14.01,2013-02-15 14:33:00,
2013-02-15 09:39:00,41.3,33.7,30.05,SSW,210,3.0,7.0,74,0.00,,---,0.00,VWS V14.01,2013-02-15 14:39:00,
2013-02-15 09:44:00,41.6,33.9,30.05,WSW,244,3.0,7.0,74,0.00,,---,0.00,VWS V14.01,2013-02-15 14:44:00,
2013-02-15 09:49:00,41.9,33.9,30.05,SW,218,4.0,8.0,73,0.00,,---,0.00,VWS V14.01,2013-02-15 14:49:00,
2013-02-15 09:54:00,42.4,34.4,30.05,WSW,240,3.0,8.0,73,0.00,,---,0.00,VWS V14.01,2013-02-15 14:54:00,
2013-02-15 09:59:00,42.5,34.5,30.05,SSW,204,6.0,10.0,73,0.00,,---,0.00,VWS V14.01,2013-02-15 14:59:00,
2013-02-15 10:04:00,42.9,34.8,30.04,South,186,4.0,7.0,73,0.00,,---,0.00,VWS V14.01,2013-02-15 15:04:00,
2013-02-15 10:09:00,43.5,34.7,30.04,SW,221,6.0,9.0,71,0.00,,---,0.00,VWS V14.01,2013-02-15 15:09:00,
2013-02-15 10:14:00,43.7,34.9,30.04,SSW,211,4.0,9.0,71,0.00,,---,0.00,VWS V14.01,2013-02-15 15:14:00,
2013-02-15 10:19:00,44.2,35.8,30.03,South,174,4.0,9.0,72,0.00,,---,0.00,VWS V14.01,2013-02-15 15:19:00,
2013-02-15 10:24:00,44.2,34.3,30.03,SW,215,5.0,11.0,68,0.00,,---,0.00,VWS V14.01,2013-02-15 15:24:00,
2013-02-15 10:29:00,44.4,35.2,30.03,SSW,210,4.0,12.0,70,0.00,,---,0.00,VWS V14.01,2013-02-15 15:29:00,
2013-02-15 10:34:00,44.9,35.7,30.03,SSE,160,2.0,7.0,70,0.00,,---,0.00,VWS V14.01,2013-02-15 15:34:00,
2013-02-15 10:39:00,44.8,34.2,30.03,SSW,211,8.0,11.0,66,0.00,,---,0.00,VWS V14.01,2013-02-15 15:39:00,
2013-02-15 10:44:00,44.8,34.2,30.03,SSW,208,8.0,11.0,66,0.00,,---,0.00,VWS V14.01,2013-02-15 15:44:00,
2013-02-15 10:49:00,44.8,34.5,30.03,WSW,253,10.0,14.0,67,0.00,,---,0.00,VWS V14.01,2013-02-15 15:49:00,
2013-02-15 10:54:00,44.8,34.5,30.02,WSW,240,8.0,14.0,67,0.00,,---,0.00,VWS V14.01,2013-02-15 15:54:00,
2013-02-15 10:59:00,44.9,34.2,30.02,SW,215,4.0,14.0,66,0.00,,---,0.00,VWS V14.01,2013-02-15 15:59:00,
2013-02-15 11:04:00,45.3,35.4,30.02,South,188,3.0,11.0,68,0.00,,---,0.00,VWS V14.01,2013-02-15 16:04:00,
2013-02-15 11:09:00,45.8,35.1,30.02,SSW,198,7.0,12.0,66,0.00,,---,0.00,VWS V14.01,2013-02-15 16:09:00,
2013-02-15 11:14:00,45.8,34.3,30.02,SW,228,8.0,12.0,64,0.00,,---,0.00,VWS V14.01,2013-02-15 16:14:00,
2013-02-15 11:19:00,45.8,34.3,30.02,SW,221,11.0,12.0,64,0.00,,---,0.00,VWS V14.01,2013-02-15 16:19:00,
2013-02-15 11:24:00,45.6,34.5,30.02,SE,141,2.0,16.0,65,0.00,,---,0.00,VWS V14.01,2013-02-15 16:24:00,
2013-02-15 11:29:00,46.0,34.1,30.02,WSW,242,9.0,16.0,63,0.00,,---,0.00,VWS V14.01,2013-02-15 16:29:00,
2013-02-15 11:34:00,45.7,34.2,30.01,SSE,164,12.0,16.0,64,0.00,,---,0.00,VWS V14.01,2013-02-15 16:34:00,
2013-02-15 11:39:00,45.7,33.8,30.01,SW,221,7.0,16.0,63,0.00,,---,0.00,VWS V14.01,2013-02-15 16:39:00,
2013-02-15 11:45:00,45.6,33.8,30.01,SW,236,6.0,16.0,63,0.00,,---,0.00,VWS V14.01,2013-02-15 16:45:00,
2013-02-15 11:50:00,45.2,33.8,30.01,SSW,198,5.0,16.0,64,0.00,,---,0.00,VWS V14.01,2013-02-15 16:50:00,
2013-02-15 11:55:00,45.2,33.4,30.01,SSW,212,12.0,16.0,63,0.00,,---,0.00,VWS V14.01,2013-02-15 16:55:00,
2013-02-15 12:00:00,45.6,34.1,30.01,SSW,201,16.0,16.0,64,0.00,,---,0.00,VWS V14.01,2013-02-15 17:00:00,
2013-02-15 12:05:00,46.2,33.9,30.00,SSW,205,12.0,16.0,62,0.00,,---,0.00,VWS V14.01,2013-02-15 17:05:00,
2013-02-15 12:10:00,45.6,32.9,30.00,West,267,5.0,19.0,61,0.00,,---,0.00,VWS V14.01,2013-02-15 17:10:00,
2013-02-15 12:15:00,45.1,33.3,30.00,SW,215,4.0,19.0,63,0.00,,---,0.00,VWS V14.01,2013-02-15 17:15:00,
2013-02-15 12:20:00,45.1,33.3,30.00,WSW,252,10.0,19.0,63,0.00,,---,0.00,VWS V14.01,2013-02-15 17:20:00,
2013-02-15 12:25:00,45.7,34.2,29.99,WSW,252,10.0,19.0,64,0.00,,---,0.00,VWS V14.01,2013-02-15 17:25:00,
2013-02-15 12:30:00,46.1,34.2,29.99,South,174,5.0,6.0,63,0.00,,---,0.00,VWS V14.01,2013-02-15 17:30:00,
2013-02-15 12:35:00,46.4,34.9,29.99,SW,214,7.0,13.0,64,0.00,,---,0.00,VWS V14.01,2013-02-15 17:35:00,
2013-02-15 12:40:00,46.2,33.5,29.99,SW,229,12.0,17.0,61,0.00,,---,0.00,VWS V14.01,2013-02-15 17:40:00,
2013-02-15 12:45:00,46.3,33.6,29.98,WSW,240,4.0,18.0,61,0.00,,---,0.00,VWS V14.01,2013-02-15 17:45:00,
2013-02-15 12:50:00,46.0,33.7,29.98,SW,217,10.0,18.0,62,0.00,,---,0.00,VWS V14.01,2013-02-15 17:50:00,
2013-02-15 12:55:00,46.6,34.3,29.98,SSW,202,11.0,20.0,62,0.00,,---,0.00,VWS V14.01,2013-02-15 17:55:00,
2013-02-15 13:00:00,47.6,34.8,29.98,West,267,3.0,8.0,61,0.00,,---,0.00,VWS V14.01,2013-02-15 18:00:00,
2013-02-15 13:05:00,47.6,34.8,29.98,SW,233,8.0,11.0,61,0.00,,---,0.00,VWS V14.01,2013-02-15 18:05:00,
2013-02-15 13:10:00,47.8,34.6,29.97,SW,215,8.0,14.0,60,0.00,,---,0.00,VWS V14.01,2013-02-15 18:10:00,
2013-02-15 13:15:00,47.0,33.4,29.98,WSW,256,6.0,14.0,59,0.00,,---,0.00,VWS V14.01,2013-02-15 18:15:00,
2013-02-15 13:20:00,46.0,33.3,29.97,West,271,9.0,14.0,61,0.00,,---,0.00,VWS V14.01,2013-02-15 18:20:00,
2013-02-15 13:25:00,45.6,33.8,29.97,SW,229,12.0,14.0,63,0.00,,---,0.00,VWS V14.01,2013-02-15 18:25:00,
2013-02-15 13:30:00,45.5,35.2,29.97,NW,319,6.0,6.0,67,0.00,,---,0.00,VWS V14.01,2013-02-15 18:30:00,
2013-02-15 13:35:00,43.9,34.8,29.97,NW,314,3.0,12.0,70,0.00,,---,0.00,VWS V14.01,2013-02-15 18:35:00,
2013-02-15 13:40:00,42.8,34.4,29.96,NW,304,5.0,12.0,72,0.00,,---,0.00,VWS V14.01,2013-02-15 18:40:00,
2013-02-15 13:45:00,42.0,34.0,29.95,NNE,18,4.0,12.0,73,0.00,,---,0.00,VWS V14.01,2013-02-15 18:45:00,
2013-02-15 13:50:00,41.6,34.3,29.96,West,266,1.0,12.0,75,0.00,,---,0.00,VWS V14.01,2013-02-15 18:50:00,
2013-02-15 13:56:00,41.4,34.1,29.96,WNW,293,3.0,12.0,75,0.00,,---,0.00,VWS V14.01,2013-02-15 18:56:00,
2013-02-15 14:01:00,40.7,33.7,29.96,NNW,329,9.0,9.0,76,0.00,,---,0.00,VWS V14.01,2013-02-15 19:01:00,
2013-02-15 14:06:00,40.0,33.4,29.96,North,352,3.0,9.0,77,0.00,,---,0.00,VWS V14.01,2013-02-15 19:06:00,
2013-02-15 14:11:00,39.3,33.0,29.96,North,353,2.0,9.0,78,0.00,,---,0.00,VWS V14.01,2013-02-15 19:11:00,
2013-02-15 14:16:00,38.9,33.0,29.96,NNW,328,4.0,9.0,79,0.00,,---,0.00,VWS V14.01,2013-02-15 19:16:00,
2013-02-15 14:21:00,38.6,33.0,29.96,NNW,340,3.0,9.0,80,0.00,,---,0.00,VWS V14.01,2013-02-15 19:21:00,
2013-02-15 14:26:00,38.2,32.6,29.96,WNW,290,3.0,9.0,80,0.00,,---,0.00,VWS V14.01,2013-02-15 19:26:00,
2013-02-15 14:31:00,37.5,32.5,29.96,WSW,248,5.0,9.0,82,0.00,,---,0.00,VWS V14.01,2013-02-15 19:31:00,
2013-02-15 14:36:00,36.7,32.9,29.96,NW,322,6.0,11.0,86,0.00,,---,0.00,VWS V14.01,2013-02-15 19:36:00,
2013-02-15 14:41:00,35.9,32.7,29.97,WNW,284,4.0,11.0,88,0.00,,---,0.00,VWS V14.01,2013-02-15 19:41:00,
2013-02-15 14:46:00,35.5,32.9,29.96,North,349,7.0,11.0,90,0.00,,---,0.00,VWS V14.01,2013-02-15 19:46:00,
2013-02-15 14:51:00,35.1,32.5,29.97,NW,314,4.0,11.0,90,0.00,,---,0.00,VWS V14.01,2013-02-15 19:51:00,
2013-02-15 14:56:00,34.3,31.7,29.97,NW,318,3.0,11.0,90,0.00,,---,0.00,VWS V14.01,2013-02-15 19:56:00,
2013-02-15 15:01:00,33.6,31.5,29.98,NW,304,3.0,8.0,92,0.00,,---,0.00,VWS V14.01,2013-02-15 20:01:00,
2013-02-15 15:06:00,32.9,30.8,29.98,NNW,348,3.0,13.0,92,0.00,,---,0.00,VWS V14.01,2013-02-15 20:06:00,
2013-02-15 15:11:00,32.4,30.6,29.98,WNW,302,2.0,13.0,93,0.00,,---,0.00,VWS V14.01,2013-02-15 20:11:00,
2013-02-15 15:16:00,32.1,30.6,29.98,WNW,294,6.0,13.0,94,0.00,,---,0.00,VWS V14.01,2013-02-15 20:16:00,
2013-02-15 15:21:00,31.8,30.3,29.99,NW,307,4.0,13.0,94,0.00,,---,0.00,VWS V14.01,2013-02-15 20:21:00,
2013-02-15 15:26:00,31.7,30.4,29.99,NNW,342,3.0,13.0,95,0.00,,---,0.00,VWS V14.01,2013-02-15 20:26:00,
2013-02-15 15:31:00,31.5,30.2,29.99,WNW,302,2.0,8.0,95,0.00,,---,0.00,VWS V14.01,2013-02-15 20:31:00,
2013-02-15 15:36:00,31.3,30.0,29.99,WNW,298,0.0,10.0,95,0.00,,---,0.00,VWS V14.01,2013-02-15 20:36:00,
2013-02-15 15:41:00,31.3,30.0,29.99,NNE,13,1.0,10.0,95,0.00,,---,0.00,VWS V14.01,2013-02-15 20:41:00,
2013-02-15 15:46:00,31.2,29.9,29.99,WNW,295,3.0,10.0,95,0.00,,---,0.00,VWS V14.01,2013-02-15 20:46:00,
2013-02-15 15:51:00,31.2,29.9,29.99,WNW,283,3.0,10.0,95,0.00,,---,0.00,VWS V14.01,2013-02-15 20:51:00,
2013-02-15 15:56:00,31.1,30.1,29.99,West,269,1.0,10.0,96,0.00,,---,0.00,VWS V14.01,2013-02-15 20:56:00,
2013-02-15 16:01:00,31.1,30.1,29.99,NW,309,5.0,7.0,96,0.00,,---,0.00,VWS V14.01,2013-02-15 21:01:00,
2013-02-15 16:06:00,31.0,30.0,29.99,WNW,293,4.0,7.0,96,0.00,,---,0.00,VWS V14.01,2013-02-15 21:06:00,
2013-02-15 16:11:00,31.0,30.0,29.99,NW,307,3.0,7.0,96,0.00,,---,0.00,VWS V14.01,2013-02-15 21:11:00,
2013-02-15 16:16:00,31.0,30.0,30.00,West,264,1.0,7.0,96,0.00,,---,0.00,VWS V14.01,2013-02-15 21:16:00,
2013-02-15 16:21:00,31.0,30.0,30.00,WNW,285,2.0,7.0,96,0.00,,---,0.00,VWS V14.01,2013-02-15 21:21:00,
2013-02-15 16:26:00,31.0,30.0,30.00,NNW,329,5.0,7.0,96,0.00,,---,0.00,VWS V14.01,2013-02-15 21:26:00,
2013-02-15 16:31:00,31.0,30.0,30.00,NW,307,3.0,4.0,96,0.00,,---,0.00,VWS V14.01,2013-02-15 21:31:00,
2013-02-15 16:36:00,31.0,30.0,30.00,WNW,302,3.0,4.0,96,0.00,,---,0.00,VWS V14.01,2013-02-15 21:36:00,
2013-02-15 16:41:00,31.0,30.0,30.00,NW,307,4.0,4.0,96,0.00,,---,0.00,VWS V14.01,2013-02-15 21:41:00,
2013-02-15 16:46:00,31.0,30.0,30.00,North,1,0.0,5.0,96,0.00,,---,0.00,VWS V14.01,2013-02-15 21:46:00,
2013-02-15 16:51:00,31.0,30.0,30.00,WNW,290,1.0,5.0,96,0.00,,---,0.00,VWS V14.01,2013-02-15 21:51:00,
2013-02-15 16:56:00,30.9,29.9,30.00,WNW,287,5.0,5.0,96,0.00,,---,0.00,VWS V14.01,2013-02-15 21:56:00,
2013-02-15 17:02:00,30.8,29.8,30.00,SSW,203,0.0,6.0,96,0.00,,---,0.00,VWS V14.01,2013-02-15 22:02:00,
2013-02-15 17:07:00,30.8,29.8,30.00,WSW,250,3.0,6.0,96,0.00,,---,0.00,VWS V14.01,2013-02-15 22:07:00,
2013-02-15 17:12:00,30.6,29.6,30.00,NW,309,7.0,7.0,96,0.00,,---,0.00,VWS V14.01,2013-02-15 22:12:00,
2013-02-15 17:17:00,30.5,29.5,30.01,WNW,294,4.0,8.0,96,0.00,,---,0.00,VWS V14.01,2013-02-15 22:17:00,
2013-02-15 17:22:00,30.4,29.4,30.02,WSW,243,2.0,8.0,96,0.00,,---,0.00,VWS V14.01,2013-02-15 22:22:00,
2013-02-15 17:27:00,30.3,29.3,30.01,NW,304,5.0,8.0,96,0.00,,---,0.00,VWS V14.01,2013-02-15 22:27:00,
2013-02-15 17:32:00,30.3,29.3,30.01,NW,313,1.0,4.0,96,0.00,,---,0.00,VWS V14.01,2013-02-15 22:32:00,
2013-02-15 17:37:00,30.2,29.5,30.01,WNW,288,2.0,5.0,97,0.00,,---,0.00,VWS V14.01,2013-02-15 22:37:00,
2013-02-15 17:42:00,30.2,29.5,30.01,WNW,302,0.0,5.0,97,0.00,,---,0.00,VWS V14.01,2013-02-15 22:42:00,
2013-02-15 17:47:00,30.2,29.5,30.02,WNW,294,1.0,6.0,97,0.00,,---,0.00,VWS V14.01,2013-02-15 22:47:00,
2013-02-15 17:52:00,30.2,29.5,30.02,West,276,0.0,7.0,97,0.00,,---,0.00,VWS V14.01,2013-02-15 22:52:00,
2013-02-15 17:57:00,30.2,29.5,30.02,WNW,298,1.0,7.0,97,0.00,,---,0.00,VWS V14.01,2013-02-15 22:57:00,
2013-02-15 18:02:00,30.2,29.5,30.02,WNW,295,4.0,5.0,97,0.00,,---,0.00,VWS V14.01,2013-02-15 23:02:00,
2013-02-15 18:07:00,30.1,29.4,30.01,West,269,1.0,5.0,97,0.00,,---,0.00,VWS V14.01,2013-02-15 23:07:00,
2013-02-15 18:12:00,30.1,29.4,30.02,West,271,3.0,5.0,97,0.00,,---,0.00,VWS V14.01,2013-02-15 23:12:00,
2013-02-15 18:17:00,30.1,29.4,30.02,West,278,0.0,5.0,97,0.00,,---,0.00,VWS V14.01,2013-02-15 23:17:00,
2013-02-15 18:22:00,30.1,29.4,30.02,NW,304,0.0,5.0,97,0.00,,---,0.00,VWS V14.01,2013-02-15 23:22:00,
2013-02-15 18:27:00,30.1,29.4,30.02,WNW,297,1.0,5.0,97,0.00,,---,0.00,VWS V14.01,2013-02-15 23:27:00,
2013-02-15 18:32:00,30.1,29.4,30.03,WSW,253,2.0,4.0,97,0.00,,---,0.00,VWS V14.01,2013-02-15 23:32:00,
2013-02-15 18:37:00,30.1,29.4,30.02,West,271,0.0,4.0,97,0.00,,---,0.00,VWS V14.01,2013-02-15 23:37:00,
2013-02-15 18:42:00,30.1,29.4,30.03,NW,316,2.0,4.0,97,0.00,,---,0.00,VWS V14.01,2013-02-15 23:42:00,
2013-02-15 18:47:00,30.0,29.2,30.03,WNW,294,1.0,5.0,97,0.00,,---,0.00,VWS V14.01,2013-02-15 23:47:00,
2013-02-15 18:52:00,30.0,29.2,30.03,WSW,238,0.0,5.0,97,0.00,,---,0.00,VWS V14.01,2013-02-15 23:52:00,
2013-02-15 18:57:00,30.0,29.2,30.03,SW,232,2.0,6.0,97,0.00,,---,0.00,VWS V14.01,2013-02-15 23:57:00,
2013-02-15 19:02:00,29.9,29.1,30.03,West,264,2.0,5.0,97,0.00,,---,0.00,VWS V14.01,2013-02-16 00:02:00,
2013-02-15 19:07:00,29.8,29.0,30.04,WNW,295,1.0,5.0,97,0.00,,---,0.00,VWS V14.01,2013-02-16 00:07:00,
2013-02-15 19:12:00,29.7,29.0,30.03,SW,226,3.0,7.0,97,0.00,,---,0.00,VWS V14.01,2013-02-16 00:12:00,
2013-02-15 19:17:00,29.6,28.9,30.03,WNW,284,3.0,7.0,97,0.00,,---,0.00,VWS V14.01,2013-02-16 00:17:00,
2013-02-15 19:23:00,29.6,28.9,30.04,South,191,1.0,7.0,97,0.00,,---,0.00,VWS V14.01,2013-02-16 00:23:00,
2013-02-15 19:28:00,29.5,28.8,30.04,West,266,0.0,7.0,97,0.00,,---,0.00,VWS V14.01,2013-02-16 00:28:00,
2013-02-15 19:33:00,29.4,28.7,30.04,West,262,3.0,6.0,97,0.00,,---,0.00,VWS V14.01,2013-02-16 00:33:00,
2013-02-15 19:38:00,29.4,28.7,30.05,WNW,299,2.0,6.0,97,0.00,,---,0.00,VWS V14.01,2013-02-16 00:38:00,
2013-02-15 19:43:00,29.4,28.7,30.05,ENE,61,0.0,6.0,97,0.00,,---,0.00,VWS V14.01,2013-02-16 00:43:00,
2013-02-15 19:48:00,29.3,28.6,30.05,WNW,302,1.0,6.0,97,0.00,,---,0.00,VWS V14.01,2013-02-16 00:48:00,
2013-02-15 19:53:00,29.2,28.5,30.05,WSW,246,0.0,6.0,97,0.00,,---,0.00,VWS V14.01,2013-02-16 00:53:00,
2013-02-15 19:58:00,29.2,28.5,30.05,SE,141,1.0,6.0,97,0.00,,---,0.00,VWS V14.01,2013-02-16 00:58:00,
2013-02-15 20:03:00,29.2,28.5,30.05,West,259,5.0,7.0,97,0.00,,---,0.00,VWS V14.01,2013-02-16 01:03:00,
2013-02-15 20:08:00,29.1,28.4,30.05,West,278,2.0,7.0,97,0.00,,---,0.00,VWS V14.01,2013-02-16 01:08:00,
2013-02-15 20:13:00,29.0,28.3,30.05,NW,311,3.0,7.0,97,0.00,,---,0.00,VWS V14.01,2013-02-16 01:13:00,
2013-02-15 20:18:00,29.0,28.3,30.05,NW,318,1.0,7.0,97,0.00,,---,0.00,VWS V14.01,2013-02-16 01:18:00,
2013-02-15 20:23:00,28.9,28.2,30.05,SSW,212,0.0,7.0,97,0.00,,---,0.00,VWS V14.01,2013-02-16 01:23:00,
2013-02-15 20:28:00,28.9,28.2,30.05,WNW,287,1.0,7.0,97,0.00,,---,0.00,VWS V14.01,2013-02-16 01:28:00,
2013-02-15 20:33:00,28.9,28.2,30.05,SW,228,0.0,4.0,97,0.00,,---,0.00,VWS V14.01,2013-02-16 01:33:00,
2013-02-15 20:38:00,28.7,28.0,30.05,WSW,243,1.0,6.0,97,0.00,,---,0.00,VWS V14.01,2013-02-16 01:38:00,
2013-02-15 20:43:00,28.7,28.0,30.05,WNW,294,1.0,6.0,97,0.00,,---,0.00,VWS V14.01,2013-02-16 01:43:00,
2013-02-15 20:48:00,28.6,27.9,30.05,WNW,297,0.0,6.0,97,0.00,,---,0.00,VWS V14.01,2013-02-16 01:48:00,
2013-02-15 20:53:00,28.6,27.9,30.05,West,263,0.0,6.0,97,0.00,,---,0.00,VWS V14.01,2013-02-16 01:53:00,
2013-02-15 20:58:00,28.6,27.9,30.05,NW,309,1.0,6.0,97,0.00,,---,0.00,VWS V14.01,2013-02-16 01:58:00,
2013-02-15 21:03:00,28.6,27.9,30.05,NNW,335,0.0,1.0,97,0.00,,---,0.00,VWS V14.01,2013-02-16 02:03:00,
2013-02-15 21:08:00,28.6,27.9,30.05,SW,235,2.0,3.0,97,0.00,,---,0.00,VWS V14.01,2013-02-16 02:08:00,
2013-02-15 21:13:00,28.6,27.9,30.05,West,276,0.0,3.0,97,0.00,,---,0.00,VWS V14.01,2013-02-16 02:13:00,
2013-02-15 21:18:00,28.6,27.9,30.05,WNW,291,2.0,3.0,97,0.00,,---,0.00,VWS V14.01,2013-02-16 02:18:00,
2013-02-15 21:23:00,28.6,27.9,30.06,SSW,210,0.0,4.0,97,0.00,,---,0.00,VWS V14.01,2013-02-16 02:23:00,
2013-02-15 21:28:00,28.6,27.9,30.06,NW,318,1.0,4.0,97,0.00,,---,0.00,VWS V14.01,2013-02-16 02:28:00,
2013-02-15 21:33:00,28.6,27.9,30.06,WNW,295,0.0,2.0,97,0.00,,---,0.00,VWS V14.01,2013-02-16 02:33:00,
2013-02-15 21:38:00,28.5,27.8,30.06,NNW,330,3.0,4.0,97,0.00,,---,0.00,VWS V14.01,2013-02-16 02:38:00,
2013-02-15 21:43:00,28.4,27.7,30.06,SW,222,1.0,5.0,97,0.00,,---,0.00,VWS V14.01,2013-02-16 02:43:00,
2013-02-15 21:48:00,28.4,27.7,30.06,West,278,0.0,6.0,97,0.00,,---,0.00,VWS V14.01,2013-02-16 02:48:00,
2013-02-15 21:53:00,28.3,27.6,30.06,South,176,3.0,7.0,97,0.00,,---,0.00,VWS V14.01,2013-02-16 02:53:00,
2013-02-15 21:59:00,28.2,27.5,30.06,ESE,120,1.0,8.0,97,0.00,,---,0.00,VWS V14.01,2013-02-16 02:59:00,
2013-02-15 22:04:00,28.1,27.1,30.06,WNW,297,3.0,6.0,96,0.00,,---,0.00,VWS V14.01,2013-02-16 03:04:00,
2013-02-15 22:09:00,28.0,27.0,30.06,WNW,287,3.0,8.0,96,0.00,,---,0.00,VWS V14.01,2013-02-16 03:09:00,
2013-02-15 22:14:00,27.9,26.9,30.06,West,264,1.0,8.0,96,0.00,,---,0.00,VWS V14.01,2013-02-16 03:14:00,
2013-02-15 22:19:00,27.9,26.9,30.06,NNW,335,1.0,8.0,96,0.00,,---,0.00,VWS V14.01,2013-02-16 03:19:00,
2013-02-15 22:24:00,27.8,26.8,30.06,WNW,290,1.0,8.0,96,0.00,,---,0.00,VWS V14.01,2013-02-16 03:24:00,
2013-02-15 22:29:00,27.7,26.7,30.06,NW,310,2.0,8.0,96,0.00,,---,0.00,VWS V14.01,2013-02-16 03:29:00,
2013-02-15 22:34:00,27.7,26.7,30.06,WNW,284,2.0,3.0,96,0.00,,---,0.00,VWS V14.01,2013-02-16 03:34:00,
2013-02-15 22:39:00,27.7,27.0,30.06,WNW,288,4.0,5.0,97,0.00,,---,0.00,VWS V14.01,2013-02-16 03:39:00,
2013-02-15 22:44:00,27.7,27.0,30.05,NW,319,2.0,8.0,97,0.00,,---,0.00,VWS V14.01,2013-02-16 03:44:00,
2013-02-15 22:49:00,27.7,26.7,30.06,NE,43,1.0,8.0,96,0.00,,---,0.00,VWS V14.01,2013-02-16 03:49:00,
2013-02-15 22:54:00,27.6,26.6,30.06,WNW,284,7.0,8.0,96,0.00,,---,0.00,VWS V14.01,2013-02-16 03:54:00,
2013-02-15 22:59:00,27.5,26.5,30.06,WNW,302,6.0,8.0,96,0.00,,---,0.00,VWS V14.01,2013-02-16 03:59:00,
2013-02-15 23:04:00,27.4,26.4,30.06,WSW,255,1.0,7.0,96,0.00,,---,0.00,VWS V14.01,2013-02-16 04:04:00,
2013-02-15 23:09:00,27.3,26.3,30.05,West,281,4.0,7.0,96,0.00,,---,0.00,VWS V14.01,2013-02-16 04:09:00,
2013-02-15 23:14:00,27.1,26.1,30.05,WSW,246,1.0,7.0,96,0.00,,---,0.00,VWS V14.01,2013-02-16 04:14:00,
2013-02-15 23:19:00,27.0,26.0,30.04,WNW,293,4.0,7.0,96,0.00,,---,0.00,VWS V14.01,2013-02-16 04:19:00,
2013-02-15 23:24:00,26.9,25.9,30.04,WSW,245,0.0,7.0,96,0.00,,---,0.00,VWS V14.01,2013-02-16 04:24:00,
2013-02-15 23:29:00,26.8,25.8,30.04,West,279,0.0,7.0,96,0.00,,---,0.00,VWS V14.01,2013-02-16 04:29:00,
2013-02-15 23:34:00,26.7,25.7,30.04,West,264,1.0,3.0,96,0.00,,---,0.00,VWS V14.01,2013-02-16 04:34:00,
2013-02-15 23:39:00,26.8,25.8,30.03,WSW,245,2.0,5.0,96,0.00,,---,0.00,VWS V14.01,2013-02-16 04:39:00,
2013-02-15 23:44:00,26.8,25.8,30.03,WNW,291,2.0,5.0,96,0.00,,---,0.00,VWS V14.01,2013-02-16 04:44:00,
2013-02-15 23:49:00,26.8,25.8,30.03,NW,320,2.0,5.0,96,0.00,,---,0.00,VWS V14.01,2013-02-16 04:49:00,
2013-02-15 23:54:00,26.5,25.5,30.02,WNW,298,1.0,5.0,96,0.00,,---,0.00,VWS V14.01,2013-02-16 04:54:00,
2013-02-15 23:59:00,26.2,25.2,30.02,WSW,238,2.0,5.0,96,0.00,,---,0.00,VWS V14.01,2013-02-16 04:59:00,